Atlantic - Newfoundland: Past 24 Hour Conditions

 

J.A. Douglas McCurdy Sydney Airport

11:00 AM ADT 23 September 2014
This table is a summary of hourly weather conditions for the past 24 hours.
Date / Time
(ADT)
Wind(knots) Conditions Visibility(km) Pressure(kPa) Air tempC) Relative humidity(%) Dew pointC) Humidex
23 September 2014
11:00 W 12 Mostly Cloudy 24 101.4 13 70 8 *
10:00 W 13 gust 20 Mostly Cloudy 24 101.4 13 74 8 *
9:00 W 12 Mostly Cloudy 24 101.3 12 73 8 *
8:00 W 9 Mostly Cloudy 24 101.2 12 72 8 *
7:00 W 15 Mostly Cloudy 24 101.2 13 69 7 *
6:00 W 7 Mostly Cloudy 24 101.1 13 73 8 *
5:00 W 16 gust 22 Partly Cloudy 24 100.9 13 71 8 *
4:00 WSW 11 Mainly Clear 24 100.8 13 73 9 *
3:00 WSW 15 gust 21 Partly Cloudy 24 100.7 15 81 12 *
2:00 SW 13 gust 20 Clear 24 100.6 15 86 13 *
1:00 SW 16 Clear 24 100.6 16 83 13 *
0:00 SW 12 gust 19 Clear 24 100.5 16 87 14 *
22 September 2014
23:00 SW 17 gust 24 Mainly Clear 24 100.5 17 86 15 *
22:00 SSW 20 gust 30 Partly Cloudy 24 100.4 17 87 15 *
21:00 SSW 16 gust 28 Mainly Clear 24 100.3 17 88 15 *
20:00 SSW 16 gust 27 Partly Cloudy 24 100.3 18 89 16 *
19:00 SSW 16 gust 29 Partly Cloudy 24 100.2 19 88 17 *
18:00 SSW 20 gust 26 Mainly Sunny 24 100.2 22 78 18 28
17:00 SW 14 gust 22 Partly Cloudy 24 100.1 24 79 20 32
16:00 SW 17 gust 27 Partly Cloudy 24 100.0 24 77 20 32
15:00 SW 15 gust 28 Partly Cloudy 24 99.9 24 80 21 32
14:00 SW 15 gust 22 Partly Cloudy 24 99.8 23 88 21 31
13:00 SSW 25 gust 37 Light Rain 8 99.8 22 93 21 30
12:00 SSW 27 gust 44 Rain 2 99.7 21 97 21 30
11:00 S 32 gust 47 Light Rain 3 99.7 21 96 21 29
 
Map of Atlantic - Newfoundland marine weather areas Southwestern Grand Banks - 44138 Banquereau - 44139 Tail of the Bank - 44140 Nickerson Bank - 44251 Northeast Burgeo Bank - 44255 Blanc-Sablon Airport Cap Whittle Chevery Natashquan Airport Heath Point Miscou Island Grand Étang Ingonish Beach North Mountain St.Paul Island J.A. Douglas McCurdy Sydney Airport Charlottetown Airport East Point North Cape Argentia Bonavista Burgeo Cape Race Corner Brook Daniel's Harbour Englee Ferolle Point La Scie Port aux Basques Rocky Harbour Sagona Island St. Anthony Airport St. John's Int'l Airport St. Lawrence Stephenville Airport Twillingate Winterland Wreckhouse Cartwright Airport Mary's Harbour Grates Cove Pool's Island Marticot Island Long Pond Îles de la Madeleine Airport
Legend: buoyBuoy land stationLand Station